« Back
NWS Peachtree City, Ga » Text Product » AHN Terminal Aerodrome Forecast


Printer-friendly Version
Current Version              Previous Versions:   1  2  3  4  5  6  7  8  9  

Terminal Aerodrome Forecast

905
FTAK31 PAJN 262300
TAFAHN
TAF
PAHN 262338Z 2700/2724 31015G23KT P6SM SCT060
     FM270300 31019G30KT P6SM SCT050
     FM271200 31012G25KT P6SM SCT050
      AMD LTD TO CLD VIS AND WIND=

USA.gov is the U.S. government's official web portal to all federal, state and local government web resources and services.